Terminal Aerodrome Forecast
Issued by NWS Houston/Galveston, TX

Home | Current Version | Previous Version | Text Only | Print | Product List | Glossary On
Versions: 1 2 3 4 5 6 7 8 9 10 11 12 13 14 15 16 17 18 19 20 21 22 23 24 25
000
FTUS44 KHGX 291720
TAFCLL
TAF
KCLL 291720Z 2918/3018 VRB06KT P6SM VCSH SCT035
     FM292100 16008KT P6SM VCSH SCT060 BKN250
     FM300000 15007KT P6SM FEW050 BKN250
     FM300600 VRB04KT P6SM SKC
     FM300900 17003KT P6SM SCT015
     FM301200 20005KT P6SM BKN015
     FM301500 20007KT P6SM FEW025 SCT035=

USA.gov is the U.S. government's official web portal to all federal, state and local government web resources and services.